sensor_id;sensor_type;location;lat;lon;timestamp;P1;durP1;ratioP1;P2;durP2;ratioP2
23119;SDS011;11729;50.836;4.330;2024-02-21T00:02:23;32.72;;;15.43;;
23119;SDS011;11729;50.836;4.330;2024-02-21T00:04:48;29.08;;;14.55;;
23119;SDS011;11729;50.836;4.330;2024-02-21T00:07:14;30.15;;;13.88;;
23119;SDS011;11729;50.836;4.330;2024-02-21T00:09:40;34.80;;;14.38;;
23119;SDS011;11729;50.836;4.330;2024-02-21T00:12:05;35.72;;;14.27;;
23119;SDS011;11729;50.836;4.330;2024-02-21T00:14:31;30.60;;;13.80;;
23119;SDS011;11729;50.836;4.330;2024-02-21T00:16:57;30.20;;;14.32;;
23119;SDS011;11729;50.836;4.330;2024-02-21T00:19:23;31.38;;;14.80;;
23119;SDS011;11729;50.836;4.330;2024-02-21T00:21:48;29.42;;;13.45;;
23119;SDS011;11729;50.836;4.330;2024-02-21T00:24:14;35.97;;;14.15;;
23119;SDS011;11729;50.836;4.330;2024-02-21T00:26:39;28.50;;;14.20;;
23119;SDS011;11729;50.836;4.330;2024-02-21T00:29:05;23.45;;;13.40;;
23119;SDS011;11729;50.836;4.330;2024-02-21T00:31:31;31.83;;;12.98;;
23119;SDS011;11729;50.836;4.330;2024-02-21T00:33:57;28.60;;;13.27;;
23119;SDS011;11729;50.836;4.330;2024-02-21T00:36:23;25.92;;;13.27;;
23119;SDS011;11729;50.836;4.330;2024-02-21T00:38:49;28.70;;;13.30;;
23119;SDS011;11729;50.836;4.330;2024-02-21T00:41:14;27.13;;;13.02;;
23119;SDS011;11729;50.836;4.330;2024-02-21T00:43:41;29.95;;;12.82;;
23119;SDS011;11729;50.836;4.330;2024-02-21T00:46:07;27.83;;;13.25;;
23119;SDS011;11729;50.836;4.330;2024-02-21T00:48:33;26.08;;;12.80;;
23119;SDS011;11729;50.836;4.330;2024-02-21T00:50:59;26.13;;;12.55;;
23119;SDS011;11729;50.836;4.330;2024-02-21T00:53:25;26.08;;;13.27;;
23119;SDS011;11729;50.836;4.330;2024-02-21T00:55:50;28.73;;;12.20;;
23119;SDS011;11729;50.836;4.330;2024-02-21T00:58:16;24.33;;;12.43;;
23119;SDS011;11729;50.836;4.330;2024-02-21T01:00:42;30.67;;;12.70;;
23119;SDS011;11729;50.836;4.330;2024-02-21T01:03:08;23.25;;;12.90;;
23119;SDS011;11729;50.836;4.330;2024-02-21T01:05:34;28.83;;;13.00;;
23119;SDS011;11729;50.836;4.330;2024-02-21T01:07:59;27.77;;;12.57;;
23119;SDS011;11729;50.836;4.330;2024-02-21T01:10:25;26.58;;;12.27;;
23119;SDS011;11729;50.836;4.330;2024-02-21T01:12:51;26.23;;;12.88;;
23119;SDS011;11729;50.836;4.330;2024-02-21T01:15:16;26.35;;;13.25;;
23119;SDS011;11729;50.836;4.330;2024-02-21T01:17:42;26.92;;;13.55;;
23119;SDS011;11729;50.836;4.330;2024-02-21T01:20:08;27.95;;;14.45;;
23119;SDS011;11729;50.836;4.330;2024-02-21T01:22:34;31.60;;;14.98;;
23119;SDS011;11729;50.836;4.330;2024-02-21T01:24:59;35.47;;;15.23;;
23119;SDS011;11729;50.836;4.330;2024-02-21T01:27:25;31.77;;;14.82;;
23119;SDS011;11729;50.836;4.330;2024-02-21T01:29:54;32.35;;;15.57;;
23119;SDS011;11729;50.836;4.330;2024-02-21T01:32:19;30.27;;;15.25;;
23119;SDS011;11729;50.836;4.330;2024-02-21T01:34:45;26.80;;;15.48;;
23119;SDS011;11729;50.836;4.330;2024-02-21T01:37:11;34.35;;;15.25;;
23119;SDS011;11729;50.836;4.330;2024-02-21T01:39:36;38.30;;;16.23;;
23119;SDS011;11729;50.836;4.330;2024-02-21T01:42:02;28.95;;;14.63;;
23119;SDS011;11729;50.836;4.330;2024-02-21T01:44:28;29.15;;;15.38;;
23119;SDS011;11729;50.836;4.330;2024-02-21T01:46:54;30.63;;;14.98;;
23119;SDS011;11729;50.836;4.330;2024-02-21T01:49:20;31.73;;;15.27;;
23119;SDS011;11729;50.836;4.330;2024-02-21T01:51:47;31.55;;;15.07;;
23119;SDS011;11729;50.836;4.330;2024-02-21T01:54:13;34.17;;;16.17;;
23119;SDS011;11729;50.836;4.330;2024-02-21T01:56:40;33.97;;;15.25;;
23119;SDS011;11729;50.836;4.330;2024-02-21T01:59:07;37.40;;;15.60;;
23119;SDS011;11729;50.836;4.330;2024-02-21T02:01:33;34.40;;;15.00;;
23119;SDS011;11729;50.836;4.330;2024-02-21T02:03:59;31.60;;;15.55;;
23119;SDS011;11729;50.836;4.330;2024-02-21T02:06:24;28.38;;;15.02;;
23119;SDS011;11729;50.836;4.330;2024-02-21T02:08:50;34.50;;;16.42;;
23119;SDS011;11729;50.836;4.330;2024-02-21T02:11:16;28.20;;;14.57;;
23119;SDS011;11729;50.836;4.330;2024-02-21T02:13:42;33.00;;;15.40;;
23119;SDS011;11729;50.836;4.330;2024-02-21T02:16:08;30.70;;;15.13;;
23119;SDS011;11729;50.836;4.330;2024-02-21T02:18:34;31.40;;;15.63;;
23119;SDS011;11729;50.836;4.330;2024-02-21T02:20:59;33.78;;;15.95;;
23119;SDS011;11729;50.836;4.330;2024-02-21T02:23:25;29.05;;;15.35;;
23119;SDS011;11729;50.836;4.330;2024-02-21T02:25:54;31.25;;;15.50;;
23119;SDS011;11729;50.836;4.330;2024-02-21T02:28:21;36.95;;;15.45;;
23119;SDS011;11729;50.836;4.330;2024-02-21T02:30:47;24.75;;;14.40;;
23119;SDS011;11729;50.836;4.330;2024-02-21T02:33:13;36.75;;;15.10;;
23119;SDS011;11729;50.836;4.330;2024-02-21T02:35:39;29.17;;;14.10;;
23119;SDS011;11729;50.836;4.330;2024-02-21T02:38:05;28.05;;;15.05;;
23119;SDS011;11729;50.836;4.330;2024-02-21T02:40:33;31.95;;;14.65;;
23119;SDS011;11729;50.836;4.330;2024-02-21T02:42:59;31.63;;;14.70;;
23119;SDS011;11729;50.836;4.330;2024-02-21T02:45:25;31.45;;;14.02;;
23119;SDS011;11729;50.836;4.330;2024-02-21T02:47:54;29.70;;;14.25;;
23119;SDS011;11729;50.836;4.330;2024-02-21T02:50:21;26.25;;;14.40;;
23119;SDS011;11729;50.836;4.330;2024-02-21T02:52:48;25.85;;;15.23;;
23119;SDS011;11729;50.836;4.330;2024-02-21T02:55:13;28.13;;;14.63;;
23119;SDS011;11729;50.836;4.330;2024-02-21T02:57:39;28.50;;;14.95;;
23119;SDS011;11729;50.836;4.330;2024-02-21T03:00:07;27.27;;;14.43;;
23119;SDS011;11729;50.836;4.330;2024-02-21T03:02:34;25.60;;;15.07;;
23119;SDS011;11729;50.836;4.330;2024-02-21T03:05:00;28.25;;;14.82;;
23119;SDS011;11729;50.836;4.330;2024-02-21T03:07:36;35.15;;;15.30;;
23119;SDS011;11729;50.836;4.330;2024-02-21T03:10:01;27.73;;;15.15;;
23119;SDS011;11729;50.836;4.330;2024-02-21T03:12:27;24.50;;;14.38;;
23119;SDS011;11729;50.836;4.330;2024-02-21T03:14:54;27.88;;;13.90;;
23119;SDS011;11729;50.836;4.330;2024-02-21T03:17:20;30.58;;;14.82;;
23119;SDS011;11729;50.836;4.330;2024-02-21T03:19:46;28.92;;;14.95;;
23119;SDS011;11729;50.836;4.330;2024-02-21T03:22:13;23.63;;;14.02;;
23119;SDS011;11729;50.836;4.330;2024-02-21T03:24:39;29.48;;;15.55;;
23119;SDS011;11729;50.836;4.330;2024-02-21T03:27:05;29.52;;;14.60;;
23119;SDS011;11729;50.836;4.330;2024-02-21T03:29:30;34.42;;;15.80;;
23119;SDS011;11729;50.836;4.330;2024-02-21T03:31:56;27.45;;;14.18;;
23119;SDS011;11729;50.836;4.330;2024-02-21T03:34:21;25.08;;;14.30;;
23119;SDS011;11729;50.836;4.330;2024-02-21T03:36:47;22.88;;;14.00;;
23119;SDS011;11729;50.836;4.330;2024-02-21T03:39:13;28.15;;;15.45;;
23119;SDS011;11729;50.836;4.330;2024-02-21T03:41:38;34.03;;;14.52;;
23119;SDS011;11729;50.836;4.330;2024-02-21T03:44:04;27.85;;;14.85;;
23119;SDS011;11729;50.836;4.330;2024-02-21T03:46:30;32.78;;;14.77;;
23119;SDS011;11729;50.836;4.330;2024-02-21T03:48:56;30.73;;;15.07;;
23119;SDS011;11729;50.836;4.330;2024-02-21T03:51:22;28.83;;;14.77;;
23119;SDS011;11729;50.836;4.330;2024-02-21T03:53:48;31.35;;;16.00;;
23119;SDS011;11729;50.836;4.330;2024-02-21T03:56:13;29.88;;;14.75;;
23119;SDS011;11729;50.836;4.330;2024-02-21T03:58:39;36.25;;;16.40;;
23119;SDS011;11729;50.836;4.330;2024-02-21T04:01:05;30.67;;;15.25;;
23119;SDS011;11729;50.836;4.330;2024-02-21T04:03:30;30.50;;;15.18;;
23119;SDS011;11729;50.836;4.330;2024-02-21T04:05:56;33.78;;;15.30;;
23119;SDS011;11729;50.836;4.330;2024-02-21T04:08:22;27.05;;;15.18;;
23119;SDS011;11729;50.836;4.330;2024-02-21T04:10:49;30.85;;;13.95;;
23119;SDS011;11729;50.836;4.330;2024-02-21T04:13:15;25.27;;;14.45;;
23119;SDS011;11729;50.836;4.330;2024-02-21T04:15:42;26.13;;;14.73;;
23119;SDS011;11729;50.836;4.330;2024-02-21T04:18:08;27.50;;;14.65;;
23119;SDS011;11729;50.836;4.330;2024-02-21T04:20:34;31.83;;;14.85;;
23119;SDS011;11729;50.836;4.330;2024-02-21T04:23:00;25.48;;;14.25;;
23119;SDS011;11729;50.836;4.330;2024-02-21T04:25:26;23.05;;;13.40;;
23119;SDS011;11729;50.836;4.330;2024-02-21T04:27:52;24.27;;;14.27;;
23119;SDS011;11729;50.836;4.330;2024-02-21T04:30:19;30.83;;;15.45;;
23119;SDS011;11729;50.836;4.330;2024-02-21T04:32:45;27.73;;;14.85;;
23119;SDS011;11729;50.836;4.330;2024-02-21T04:35:11;23.45;;;14.43;;
23119;SDS011;11729;50.836;4.330;2024-02-21T04:37:37;24.85;;;14.38;;
23119;SDS011;11729;50.836;4.330;2024-02-21T04:40:03;28.90;;;14.10;;
23119;SDS011;11729;50.836;4.330;2024-02-21T04:42:29;33.58;;;14.75;;
23119;SDS011;11729;50.836;4.330;2024-02-21T04:44:55;30.85;;;14.60;;
23119;SDS011;11729;50.836;4.330;2024-02-21T04:47:20;28.05;;;14.85;;
23119;SDS011;11729;50.836;4.330;2024-02-21T04:49:48;31.33;;;14.07;;
23119;SDS011;11729;50.836;4.330;2024-02-21T04:52:14;26.40;;;14.20;;
23119;SDS011;11729;50.836;4.330;2024-02-21T04:54:39;23.98;;;14.50;;
23119;SDS011;11729;50.836;4.330;2024-02-21T04:57:05;28.30;;;14.27;;
23119;SDS011;11729;50.836;4.330;2024-02-21T04:59:31;24.80;;;14.07;;
23119;SDS011;11729;50.836;4.330;2024-02-21T05:01:57;27.15;;;13.80;;
23119;SDS011;11729;50.836;4.330;2024-02-21T05:04:23;25.85;;;14.20;;
23119;SDS011;11729;50.836;4.330;2024-02-21T05:06:49;23.77;;;14.20;;
23119;SDS011;11729;50.836;4.330;2024-02-21T05:09:15;27.33;;;14.00;;
23119;SDS011;11729;50.836;4.330;2024-02-21T05:11:42;24.17;;;13.38;;
23119;SDS011;11729;50.836;4.330;2024-02-21T05:14:07;25.23;;;13.95;;
23119;SDS011;11729;50.836;4.330;2024-02-21T05:16:33;22.83;;;15.00;;
23119;SDS011;11729;50.836;4.330;2024-02-21T05:18:59;25.90;;;14.40;;
23119;SDS011;11729;50.836;4.330;2024-02-21T05:21:25;25.60;;;14.30;;
23119;SDS011;11729;50.836;4.330;2024-02-21T05:23:53;24.63;;;14.33;;
23119;SDS011;11729;50.836;4.330;2024-02-21T05:26:22;25.58;;;13.70;;
23119;SDS011;11729;50.836;4.330;2024-02-21T05:28:49;21.20;;;13.65;;
23119;SDS011;11729;50.836;4.330;2024-02-21T05:33:43;23.55;;;13.02;;
23119;SDS011;11729;50.836;4.330;2024-02-21T05:36:09;18.92;;;13.13;;
23119;SDS011;11729;50.836;4.330;2024-02-21T05:38:35;19.35;;;13.07;;
23119;SDS011;11729;50.836;4.330;2024-02-21T05:41:01;22.40;;;13.40;;
23119;SDS011;11729;50.836;4.330;2024-02-21T05:43:27;22.58;;;12.77;;
23119;SDS011;11729;50.836;4.330;2024-02-21T05:45:52;19.33;;;12.30;;
23119;SDS011;11729;50.836;4.330;2024-02-21T05:48:18;19.98;;;11.65;;
23119;SDS011;11729;50.836;4.330;2024-02-21T05:50:44;18.58;;;12.50;;
23119;SDS011;11729;50.836;4.330;2024-02-21T05:53:10;19.70;;;11.68;;
23119;SDS011;11729;50.836;4.330;2024-02-21T05:55:36;19.52;;;12.27;;
23119;SDS011;11729;50.836;4.330;2024-02-21T05:58:02;20.40;;;12.63;;
23119;SDS011;11729;50.836;4.330;2024-02-21T06:00:28;17.48;;;12.35;;
23119;SDS011;11729;50.836;4.330;2024-02-21T06:02:54;17.17;;;11.68;;
23119;SDS011;11729;50.836;4.330;2024-02-21T06:05:20;17.02;;;11.70;;
23119;SDS011;11729;50.836;4.330;2024-02-21T06:07:46;22.75;;;11.73;;
23119;SDS011;11729;50.836;4.330;2024-02-21T06:10:11;17.95;;;11.48;;
23119;SDS011;11729;50.836;4.330;2024-02-21T06:12:37;16.65;;;11.25;;
23119;SDS011;11729;50.836;4.330;2024-02-21T06:15:03;19.55;;;10.93;;
23119;SDS011;11729;50.836;4.330;2024-02-21T06:17:29;16.55;;;11.20;;
23119;SDS011;11729;50.836;4.330;2024-02-21T06:19:54;15.40;;;11.18;;
23119;SDS011;11729;50.836;4.330;2024-02-21T06:22:20;16.00;;;10.43;;
23119;SDS011;11729;50.836;4.330;2024-02-21T06:24:46;16.02;;;11.52;;
23119;SDS011;11729;50.836;4.330;2024-02-21T06:27:11;18.70;;;12.00;;
23119;SDS011;11729;50.836;4.330;2024-02-21T06:29:37;16.73;;;12.00;;
23119;SDS011;11729;50.836;4.330;2024-02-21T06:32:03;16.50;;;12.57;;
23119;SDS011;11729;50.836;4.330;2024-02-21T06:34:29;19.42;;;12.45;;
23119;SDS011;11729;50.836;4.330;2024-02-21T06:36:55;19.70;;;13.95;;
23119;SDS011;11729;50.836;4.330;2024-02-21T06:39:20;27.88;;;16.92;;
23119;SDS011;11729;50.836;4.330;2024-02-21T06:41:48;24.85;;;15.05;;
23119;SDS011;11729;50.836;4.330;2024-02-21T06:44:16;20.52;;;14.88;;
23119;SDS011;11729;50.836;4.330;2024-02-21T06:46:42;20.15;;;14.45;;
23119;SDS011;11729;50.836;4.330;2024-02-21T06:49:07;23.15;;;15.32;;
23119;SDS011;11729;50.836;4.330;2024-02-21T06:51:33;27.67;;;15.73;;
23119;SDS011;11729;50.836;4.330;2024-02-21T06:53:59;23.48;;;16.23;;
23119;SDS011;11729;50.836;4.330;2024-02-21T06:56:25;24.52;;;15.98;;
23119;SDS011;11729;50.836;4.330;2024-02-21T07:01:20;24.83;;;15.15;;
23119;SDS011;11729;50.836;4.330;2024-02-21T07:03:45;27.52;;;14.65;;
23119;SDS011;11729;50.836;4.330;2024-02-21T07:06:11;26.58;;;16.60;;
23119;SDS011;11729;50.836;4.330;2024-02-21T07:08:37;28.33;;;18.10;;
23119;SDS011;11729;50.836;4.330;2024-02-21T07:11:04;25.50;;;18.23;;
23119;SDS011;11729;50.836;4.330;2024-02-21T07:13:29;29.42;;;19.42;;
23119;SDS011;11729;50.836;4.330;2024-02-21T07:15:55;25.02;;;18.05;;
23119;SDS011;11729;50.836;4.330;2024-02-21T07:18:21;28.15;;;19.77;;
23119;SDS011;11729;50.836;4.330;2024-02-21T07:20:46;28.27;;;18.02;;
23119;SDS011;11729;50.836;4.330;2024-02-21T07:23:12;27.20;;;17.42;;
23119;SDS011;11729;50.836;4.330;2024-02-21T07:25:39;25.95;;;18.15;;
23119;SDS011;11729;50.836;4.330;2024-02-21T07:28:05;27.95;;;16.45;;
23119;SDS011;11729;50.836;4.330;2024-02-21T07:30:31;23.90;;;16.83;;
23119;SDS011;11729;50.836;4.330;2024-02-21T07:32:57;25.17;;;18.23;;
23119;SDS011;11729;50.836;4.330;2024-02-21T07:35:22;29.02;;;17.48;;
23119;SDS011;11729;50.836;4.330;2024-02-21T07:37:48;24.42;;;17.65;;
23119;SDS011;11729;50.836;4.330;2024-02-21T07:40:15;22.50;;;15.75;;
23119;SDS011;11729;50.836;4.330;2024-02-21T07:42:41;20.43;;;15.77;;
23119;SDS011;11729;50.836;4.330;2024-02-21T07:45:08;24.23;;;16.10;;
23119;SDS011;11729;50.836;4.330;2024-02-21T07:47:35;25.10;;;14.77;;
23119;SDS011;11729;50.836;4.330;2024-02-21T07:50:01;23.55;;;15.48;;
23119;SDS011;11729;50.836;4.330;2024-02-21T07:52:27;20.10;;;14.27;;
23119;SDS011;11729;50.836;4.330;2024-02-21T07:54:53;17.85;;;13.68;;
23119;SDS011;11729;50.836;4.330;2024-02-21T07:57:19;21.13;;;12.88;;
23119;SDS011;11729;50.836;4.330;2024-02-21T07:59:45;16.35;;;11.77;;
23119;SDS011;11729;50.836;4.330;2024-02-21T08:02:13;23.98;;;12.05;;
23119;SDS011;11729;50.836;4.330;2024-02-21T08:04:42;19.63;;;12.02;;
23119;SDS011;11729;50.836;4.330;2024-02-21T08:07:11;21.75;;;12.82;;
23119;SDS011;11729;50.836;4.330;2024-02-21T08:09:36;21.15;;;12.85;;
23119;SDS011;11729;50.836;4.330;2024-02-21T08:12:05;18.38;;;11.18;;
23119;SDS011;11729;50.836;4.330;2024-02-21T08:14:32;11.02;;;9.77;;
23119;SDS011;11729;50.836;4.330;2024-02-21T08:16:58;13.07;;;10.40;;
23119;SDS011;11729;50.836;4.330;2024-02-21T08:19:24;16.80;;;10.82;;
23119;SDS011;11729;50.836;4.330;2024-02-21T08:21:51;14.63;;;10.65;;
23119;SDS011;11729;50.836;4.330;2024-02-21T08:24:19;16.48;;;10.52;;
23119;SDS011;11729;50.836;4.330;2024-02-21T08:26:47;12.43;;;9.30;;
23119;SDS011;11729;50.836;4.330;2024-02-21T08:29:13;15.40;;;9.48;;
23119;SDS011;11729;50.836;4.330;2024-02-21T08:31:39;16.40;;;9.80;;
23119;SDS011;11729;50.836;4.330;2024-02-21T08:34:04;13.43;;;9.15;;
23119;SDS011;11729;50.836;4.330;2024-02-21T08:36:31;14.90;;;9.27;;
23119;SDS011;11729;50.836;4.330;2024-02-21T08:38:57;14.68;;;9.45;;
23119;SDS011;11729;50.836;4.330;2024-02-21T08:41:24;16.17;;;9.38;;
23119;SDS011;11729;50.836;4.330;2024-02-21T08:43:50;12.43;;;8.77;;
23119;SDS011;11729;50.836;4.330;2024-02-21T08:46:19;12.63;;;8.60;;
23119;SDS011;11729;50.836;4.330;2024-02-21T08:48:46;15.35;;;9.07;;
23119;SDS011;11729;50.836;4.330;2024-02-21T08:51:15;12.32;;;8.57;;
23119;SDS011;11729;50.836;4.330;2024-02-21T08:53:40;14.45;;;8.60;;
23119;SDS011;11729;50.836;4.330;2024-02-21T08:56:06;13.73;;;8.80;;
23119;SDS011;11729;50.836;4.330;2024-02-21T08:58:35;11.40;;;8.65;;
23119;SDS011;11729;50.836;4.330;2024-02-21T09:01:04;14.95;;;8.02;;
23119;SDS011;11729;50.836;4.330;2024-02-21T09:03:32;11.50;;;8.13;;
23119;SDS011;11729;50.836;4.330;2024-02-21T09:05:58;13.07;;;7.57;;
23119;SDS011;11729;50.836;4.330;2024-02-21T09:08:25;15.05;;;9.00;;
23119;SDS011;11729;50.836;4.330;2024-02-21T09:10:51;15.18;;;8.68;;
23119;SDS011;11729;50.836;4.330;2024-02-21T09:13:17;12.23;;;9.57;;
23119;SDS011;11729;50.836;4.330;2024-02-21T09:15:43;13.20;;;8.43;;
23119;SDS011;11729;50.836;4.330;2024-02-21T09:18:09;11.60;;;8.27;;
23119;SDS011;11729;50.836;4.330;2024-02-21T09:20:35;11.43;;;8.10;;
23119;SDS011;11729;50.836;4.330;2024-02-21T09:23:01;12.68;;;8.32;;
23119;SDS011;11729;50.836;4.330;2024-02-21T09:25:26;11.35;;;8.68;;
23119;SDS011;11729;50.836;4.330;2024-02-21T09:27:53;11.80;;;7.88;;
23119;SDS011;11729;50.836;4.330;2024-02-21T09:30:20;10.70;;;7.77;;
23119;SDS011;11729;50.836;4.330;2024-02-21T09:32:45;14.48;;;8.55;;
23119;SDS011;11729;50.836;4.330;2024-02-21T09:35:12;9.90;;;8.23;;
23119;SDS011;11729;50.836;4.330;2024-02-21T09:37:38;14.50;;;9.35;;
23119;SDS011;11729;50.836;4.330;2024-02-21T09:40:05;11.98;;;8.93;;
23119;SDS011;11729;50.836;4.330;2024-02-21T09:42:40;14.02;;;8.20;;
23119;SDS011;11729;50.836;4.330;2024-02-21T09:45:19;11.50;;;8.30;;
23119;SDS011;11729;50.836;4.330;2024-02-21T09:47:57;16.52;;;8.48;;
23119;SDS011;11729;50.836;4.330;2024-02-21T09:50:44;12.85;;;8.50;;
23119;SDS011;11729;50.836;4.330;2024-02-21T09:53:12;11.47;;;7.73;;
23119;SDS011;11729;50.836;4.330;2024-02-21T09:55:39;10.23;;;7.28;;
23119;SDS011;11729;50.836;4.330;2024-02-21T09:58:07;10.60;;;8.13;;
23119;SDS011;11729;50.836;4.330;2024-02-21T10:00:34;12.63;;;8.63;;
23119;SDS011;11729;50.836;4.330;2024-02-21T10:03:00;13.70;;;8.15;;
23119;SDS011;11729;50.836;4.330;2024-02-21T10:05:27;9.70;;;7.45;;
23119;SDS011;11729;50.836;4.330;2024-02-21T10:07:53;10.13;;;7.45;;
23119;SDS011;11729;50.836;4.330;2024-02-21T10:10:22;13.25;;;7.80;;
23119;SDS011;11729;50.836;4.330;2024-02-21T10:12:51;11.60;;;7.07;;
23119;SDS011;11729;50.836;4.330;2024-02-21T10:15:20;14.13;;;7.22;;
23119;SDS011;11729;50.836;4.330;2024-02-21T10:17:57;15.68;;;7.22;;
23119;SDS011;11729;50.836;4.330;2024-02-21T10:20:25;12.05;;;7.65;;
23119;SDS011;11729;50.836;4.330;2024-02-21T10:23:01;13.63;;;7.82;;
23119;SDS011;11729;50.836;4.330;2024-02-21T10:25:28;19.52;;;8.00;;
23119;SDS011;11729;50.836;4.330;2024-02-21T10:27:55;16.60;;;7.68;;
23119;SDS011;11729;50.836;4.330;2024-02-21T10:30:21;13.63;;;8.32;;
23119;SDS011;11729;50.836;4.330;2024-02-21T10:32:50;15.07;;;9.05;;
23119;SDS011;11729;50.836;4.330;2024-02-21T10:35:25;10.80;;;6.47;;
23119;SDS011;11729;50.836;4.330;2024-02-21T10:37:55;11.88;;;7.13;;
23119;SDS011;11729;50.836;4.330;2024-02-21T10:40:25;15.35;;;8.23;;
23119;SDS011;11729;50.836;4.330;2024-02-21T10:43:01;14.63;;;8.05;;
23119;SDS011;11729;50.836;4.330;2024-02-21T10:48:00;12.75;;;7.85;;
23119;SDS011;11729;50.836;4.330;2024-02-21T10:50:40;13.52;;;7.88;;
23119;SDS011;11729;50.836;4.330;2024-02-21T10:58:58;13.25;;;8.68;;
23119;SDS011;11729;50.836;4.330;2024-02-21T11:01:27;12.13;;;7.43;;
23119;SDS011;11729;50.836;4.330;2024-02-21T11:03:55;12.55;;;7.40;;
23119;SDS011;11729;50.836;4.330;2024-02-21T11:06:22;13.20;;;7.60;;
23119;SDS011;11729;50.836;4.330;2024-02-21T11:09:08;11.10;;;6.25;;
23119;SDS011;11729;50.836;4.330;2024-02-21T11:11:40;16.08;;;7.75;;
23119;SDS011;11729;50.836;4.330;2024-02-21T11:14:11;10.50;;;7.20;;
23119;SDS011;11729;50.836;4.330;2024-02-21T11:16:43;12.30;;;6.90;;
23119;SDS011;11729;50.836;4.330;2024-02-21T11:21:44;10.55;;;7.43;;
23119;SDS011;11729;50.836;4.330;2024-02-21T11:24:09;12.32;;;7.40;;
23119;SDS011;11729;50.836;4.330;2024-02-21T11:26:37;14.20;;;8.23;;
23119;SDS011;11729;50.836;4.330;2024-02-21T11:29:03;9.85;;;7.35;;
23119;SDS011;11729;50.836;4.330;2024-02-21T11:31:42;13.15;;;7.07;;
23119;SDS011;11729;50.836;4.330;2024-02-21T11:34:11;11.10;;;7.43;;
23119;SDS011;11729;50.836;4.330;2024-02-21T11:36:58;9.90;;;7.45;;
23119;SDS011;11729;50.836;4.330;2024-02-21T11:39:24;9.63;;;7.38;;
23119;SDS011;11729;50.836;4.330;2024-02-21T11:44:45;11.10;;;7.25;;
23119;SDS011;11729;50.836;4.330;2024-02-21T11:47:11;13.50;;;7.53;;
23119;SDS011;11729;50.836;4.330;2024-02-21T11:49:43;12.20;;;7.40;;
23119;SDS011;11729;50.836;4.330;2024-02-21T11:52:11;11.32;;;6.70;;
23119;SDS011;11729;50.836;4.330;2024-02-21T11:54:36;12.38;;;7.30;;
23119;SDS011;11729;50.836;4.330;2024-02-21T11:57:02;13.23;;;7.68;;
23119;SDS011;11729;50.836;4.330;2024-02-21T11:59:31;9.70;;;7.40;;
23119;SDS011;11729;50.836;4.330;2024-02-21T12:01:58;10.85;;;7.32;;
23119;SDS011;11729;50.836;4.330;2024-02-21T12:04:24;10.82;;;7.20;;
23119;SDS011;11729;50.836;4.330;2024-02-21T12:06:50;10.48;;;8.25;;
23119;SDS011;11729;50.836;4.330;2024-02-21T12:09:18;14.75;;;8.23;;
23119;SDS011;11729;50.836;4.330;2024-02-21T12:11:44;10.18;;;7.38;;
23119;SDS011;11729;50.836;4.330;2024-02-21T12:14:15;9.88;;;7.22;;
23119;SDS011;11729;50.836;4.330;2024-02-21T12:16:41;12.10;;;7.45;;
23119;SDS011;11729;50.836;4.330;2024-02-21T12:19:09;14.43;;;7.90;;
23119;SDS011;11729;50.836;4.330;2024-02-21T12:21:35;13.35;;;8.35;;
23119;SDS011;11729;50.836;4.330;2024-02-21T12:26:39;13.43;;;7.88;;
23119;SDS011;11729;50.836;4.330;2024-02-21T12:29:05;11.18;;;8.60;;
23119;SDS011;11729;50.836;4.330;2024-02-21T12:31:31;12.18;;;7.90;;
23119;SDS011;11729;50.836;4.330;2024-02-21T12:33:57;13.02;;;8.20;;
23119;SDS011;11729;50.836;4.330;2024-02-21T12:36:22;10.68;;;8.27;;
23119;SDS011;11729;50.836;4.330;2024-02-21T12:38:48;13.07;;;7.85;;
23119;SDS011;11729;50.836;4.330;2024-02-21T12:41:14;15.38;;;8.13;;
23119;SDS011;11729;50.836;4.330;2024-02-21T12:43:40;12.63;;;7.95;;
23119;SDS011;11729;50.836;4.330;2024-02-21T12:46:07;9.65;;;7.55;;
23119;SDS011;11729;50.836;4.330;2024-02-21T12:48:34;13.27;;;8.30;;
23119;SDS011;11729;50.836;4.330;2024-02-21T12:51:00;11.82;;;8.50;;
23119;SDS011;11729;50.836;4.330;2024-02-21T12:53:26;11.43;;;8.02;;
23119;SDS011;11729;50.836;4.330;2024-02-21T12:55:53;12.93;;;8.02;;
23119;SDS011;11729;50.836;4.330;2024-02-21T12:58:18;10.45;;;8.07;;
23119;SDS011;11729;50.836;4.330;2024-02-21T13:00:50;11.13;;;8.50;;
23119;SDS011;11729;50.836;4.330;2024-02-21T13:03:16;14.35;;;8.27;;
23119;SDS011;11729;50.836;4.330;2024-02-21T13:05:42;12.73;;;8.02;;
23119;SDS011;11729;50.836;4.330;2024-02-21T13:08:08;11.48;;;7.60;;
23119;SDS011;11729;50.836;4.330;2024-02-21T13:10:34;10.10;;;7.53;;
23119;SDS011;11729;50.836;4.330;2024-02-21T13:13:01;17.00;;;7.95;;
23119;SDS011;11729;50.836;4.330;2024-02-21T13:15:27;11.20;;;8.18;;
23119;SDS011;11729;50.836;4.330;2024-02-21T13:17:56;13.10;;;8.23;;
23119;SDS011;11729;50.836;4.330;2024-02-21T13:20:22;11.38;;;7.45;;
23119;SDS011;11729;50.836;4.330;2024-02-21T13:22:48;12.07;;;7.93;;
23119;SDS011;11729;50.836;4.330;2024-02-21T13:25:14;16.75;;;8.45;;
23119;SDS011;11729;50.836;4.330;2024-02-21T13:27:43;13.25;;;8.55;;
23119;SDS011;11729;50.836;4.330;2024-02-21T13:30:09;14.25;;;9.25;;
23119;SDS011;11729;50.836;4.330;2024-02-21T13:32:36;13.52;;;8.90;;
23119;SDS011;11729;50.836;4.330;2024-02-21T13:35:01;14.50;;;8.23;;
23119;SDS011;11729;50.836;4.330;2024-02-21T13:37:28;10.45;;;7.78;;
23119;SDS011;11729;50.836;4.330;2024-02-21T13:39:54;14.25;;;8.25;;
23119;SDS011;11729;50.836;4.330;2024-02-21T13:42:21;14.35;;;8.50;;
23119;SDS011;11729;50.836;4.330;2024-02-21T13:44:46;11.85;;;8.40;;
23119;SDS011;11729;50.836;4.330;2024-02-21T13:47:14;12.10;;;8.60;;
23119;SDS011;11729;50.836;4.330;2024-02-21T13:49:40;15.55;;;9.77;;
23119;SDS011;11729;50.836;4.330;2024-02-21T13:52:07;16.02;;;8.15;;
23119;SDS011;11729;50.836;4.330;2024-02-21T13:54:34;10.63;;;8.57;;
23119;SDS011;11729;50.836;4.330;2024-02-21T13:57:00;13.55;;;8.90;;
23119;SDS011;11729;50.836;4.330;2024-02-21T13:59:27;13.13;;;9.25;;
23119;SDS011;11729;50.836;4.330;2024-02-21T14:01:53;16.02;;;9.45;;
23119;SDS011;11729;50.836;4.330;2024-02-21T14:04:19;12.32;;;8.98;;
23119;SDS011;11729;50.836;4.330;2024-02-21T14:06:45;12.10;;;8.38;;
23119;SDS011;11729;50.836;4.330;2024-02-21T14:09:11;11.60;;;8.35;;
23119;SDS011;11729;50.836;4.330;2024-02-21T14:11:37;11.38;;;8.63;;
23119;SDS011;11729;50.836;4.330;2024-02-21T14:14:04;12.00;;;9.23;;
23119;SDS011;11729;50.836;4.330;2024-02-21T14:16:30;9.68;;;8.73;;
23119;SDS011;11729;50.836;4.330;2024-02-21T14:18:55;15.95;;;9.23;;
23119;SDS011;11729;50.836;4.330;2024-02-21T14:21:21;9.52;;;8.57;;
23119;SDS011;11729;50.836;4.330;2024-02-21T14:23:47;11.85;;;8.68;;
23119;SDS011;11729;50.836;4.330;2024-02-21T14:26:13;18.20;;;9.52;;
23119;SDS011;11729;50.836;4.330;2024-02-21T14:28:39;12.02;;;8.90;;
23119;SDS011;11729;50.836;4.330;2024-02-21T14:31:06;18.52;;;9.50;;
23119;SDS011;11729;50.836;4.330;2024-02-21T14:33:37;16.37;;;9.17;;
23119;SDS011;11729;50.836;4.330;2024-02-21T14:36:02;12.18;;;8.52;;
23119;SDS011;11729;50.836;4.330;2024-02-21T14:38:29;17.88;;;9.95;;
23119;SDS011;11729;50.836;4.330;2024-02-21T14:40:54;12.07;;;8.52;;
23119;SDS011;11729;50.836;4.330;2024-02-21T14:43:20;20.67;;;11.20;;
23119;SDS011;11729;50.836;4.330;2024-02-21T14:45:47;14.20;;;9.63;;
23119;SDS011;11729;50.836;4.330;2024-02-21T14:48:13;14.07;;;8.45;;